Time;durP1;ratioP1;P1;durP2;ratioP2;P2;SDS_P1;SDS_P2;PMS_P1;PMS_P2;Temp;Humidity;BMP_temperature;BMP_pressure;BME280_temperature;BME280_humidity;BME280_pressure;Samples;Min_cycle;Max_cycle;Signal;HPM_P1;HPM_P2
2022/11/03 00:01:52;;;;;;;8.52;2.60;;;12.70;99.90;;;;;;5039959;28;20128;-88
2022/11/03 00:04:20;;;;;;;12.63;3.05;;;11.80;99.90;;;;;;5032434;28;20044;-88
2022/11/03 00:06:51;;;;;;;13.70;2.90;;;12.80;99.90;;;;;;5051471;28;20049;-88
2022/11/03 00:09:18;;;;;;;14.63;2.78;;;11.70;99.90;;;;;;5036134;28;20037;-89
2022/11/03 00:11:46;;;;;;;13.50;3.38;;;11.70;99.90;;;;;;5040554;28;20041;-88
2022/11/03 00:14:13;;;;;;;13.10;2.83;;;11.70;99.90;;;;;;5043101;28;20143;-89
2022/11/03 00:16:39;;;;;;;17.65;3.15;;;11.80;99.90;;;;;;5037944;28;20043;-89
2022/11/03 00:19:06;;;;;;;10.10;2.45;;;11.80;99.90;;;;;;5028900;28;20045;-89
2022/11/03 00:21:32;;;;;;;13.52;3.05;;;11.80;99.90;;;;;;5021489;28;20041;-89
2022/11/03 00:24:00;;;;;;;10.93;2.75;;;12.30;99.90;;;;;;5038251;28;20049;-89
2022/11/03 00:26:28;;;;;;;15.07;3.05;;;11.80;99.90;;;;;;5020159;28;20198;-90
2022/11/03 00:28:56;;;;;;;13.88;3.10;;;11.80;99.90;;;;;;5034648;28;20048;-89
2022/11/03 00:31:27;;;;;;;15.20;3.17;;;11.70;99.90;;;;;;5036068;28;20048;-89
2022/11/03 00:33:53;;;;;;;16.60;3.85;;;11.70;99.90;;;;;;5047254;28;20271;-90
2022/11/03 00:36:22;;;;;;;13.00;3.13;;;11.80;99.90;;;;;;5036271;28;20203;-89
2022/11/03 00:38:48;;;;;;;12.23;2.97;;;11.80;99.90;;;;;;5030963;28;20464;-89
2022/11/03 00:41:14;;;;;;;14.98;3.40;;;11.70;99.90;;;;;;5037381;28;20555;-89
2022/11/03 00:43:40;;;;;;;11.55;3.00;;;11.70;99.90;;;;;;5025952;28;20045;-90
2022/11/03 00:46:07;;;;;;;19.48;3.50;;;12.30;99.90;;;;;;5034216;28;20443;-89
2022/11/03 00:48:34;;;;;;;12.43;2.83;;;12.10;99.90;;;;;;5034172;28;20060;-89
2022/11/03 00:51:00;;;;;;;12.40;3.30;;;12.50;99.90;;;;;;5021861;28;20045;-90
2022/11/03 00:53:27;;;;;;;13.07;3.38;;;11.70;99.90;;;;;;5052301;28;20071;-89
2022/11/03 00:55:52;;;;;;;14.13;3.00;;;12.70;99.90;;;;;;5037000;28;20145;-89
2022/11/03 00:58:18;;;;;;;9.68;2.63;;;11.70;99.90;;;;;;5018887;28;20180;-89
2022/11/03 01:00:44;;;;;;;12.65;3.05;;;11.70;99.90;;;;;;5016971;28;20080;-88
2022/11/03 01:03:10;;;;;;;8.73;2.50;;;11.70;99.90;;;;;;5020385;28;20128;-90
2022/11/03 01:08:34;;;;;;;16.25;3.05;;;11.70;99.90;;;;;;5036123;28;20133;-89
2022/11/03 01:13:53;;;;;;;12.65;2.90;;;11.90;99.90;;;;;;5050236;28;20077;-89
2022/11/03 01:16:19;;;;;;;13.90;2.92;;;11.70;99.90;;;;;;5050112;28;20077;-88
2022/11/03 01:18:44;;;;;;;14.27;3.28;;;11.80;99.90;;;;;;5016530;28;20164;-89
2022/11/03 01:21:10;;;;;;;11.27;2.92;;;11.90;99.90;;;;;;5016565;28;20077;-89
2022/11/03 01:23:35;;;;;;;14.50;3.13;;;11.60;99.90;;;;;;5033017;28;20092;-88
2022/11/03 01:26:06;;;;;;;12.73;3.05;;;12.00;99.90;;;;;;5016921;28;20100;-89
2022/11/03 01:28:36;;;;;;;15.40;3.08;;;11.50;99.90;;;;;;5020096;28;20033;-89
2022/11/03 01:31:07;;;;;;;14.95;2.80;;;12.50;99.90;;;;;;5036736;28;20049;-89
2022/11/03 01:33:33;;;;;;;9.90;2.85;;;11.60;99.90;;;;;;5050989;28;20040;-89
2022/11/03 01:36:00;;;;;;;19.90;3.50;;;11.60;99.90;;;;;;5016999;28;20050;-89
2022/11/03 01:38:26;;;;;;;12.93;3.15;;;12.70;99.90;;;;;;5015977;28;20041;-89
2022/11/03 01:40:51;;;;;;;12.93;2.95;;;11.60;99.90;;;;;;5032770;28;20048;-89
2022/11/03 01:43:22;;;;;;;9.43;3.13;;;12.30;99.90;;;;;;5015899;28;20049;-89
2022/11/03 01:45:51;;;;;;;14.88;3.00;;;12.70;99.90;;;;;;5019565;28;20172;-89
2022/11/03 01:48:19;;;;;;;12.77;3.08;;;11.60;99.90;;;;;;5050804;28;20045;-89
2022/11/03 01:50:46;;;;;;;11.90;2.75;;;11.60;99.90;;;;;;5041751;28;20095;-88
2022/11/03 01:53:13;;;;;;;11.77;3.05;;;12.30;99.90;;;;;;5031760;28;20147;-88
2022/11/03 01:55:39;;;;;;;14.60;2.85;;;11.50;99.90;;;;;;5018279;28;20052;-89
2022/11/03 01:58:22;;;;;;;12.73;2.75;;;11.50;99.90;;;;;;5036242;28;20120;-90
2022/11/03 02:00:53;;;;;;;14.35;2.85;;;11.50;99.90;;;;;;5031575;28;20069;-88
2022/11/03 02:03:21;;;;;;;11.65;3.03;;;11.50;99.90;;;;;;5015996;28;20398;-89
2022/11/03 02:05:48;;;;;;;9.35;2.83;;;11.40;99.90;;;;;;5033112;28;20052;-89
2022/11/03 02:08:23;;;;;;;12.90;2.60;;;11.50;99.90;;;;;;5008230;28;20038;-89
2022/11/03 02:10:50;;;;;;;11.30;3.53;;;11.50;99.90;;;;;;5022069;28;20045;-89
2022/11/03 02:13:26;;;;;;;11.40;3.22;;;11.50;99.90;;;;;;5010132;28;20144;-89
2022/11/03 02:15:56;;;;;;;14.27;3.40;;;11.50;99.90;;;;;;5020745;28;20037;-89
2022/11/03 02:18:27;;;;;;;14.65;3.60;;;11.50;99.90;;;;;;5013248;28;20052;-89
2022/11/03 02:21:24;;;;;;;14.63;3.10;;;11.50;99.90;;;;;;5040466;28;20112;-89
2022/11/03 02:24:01;;;;;;;13.65;3.10;;;11.50;99.90;;;;;;5022303;28;20041;-88
2022/11/03 02:26:27;;;;;;;14.13;3.28;;;11.40;99.90;;;;;;5048267;28;20391;-88
2022/11/03 02:28:52;;;;;;;14.43;3.15;;;11.40;99.90;;;;;;5038616;28;20056;-89
2022/11/03 02:31:41;;;;;;;13.63;2.97;;;11.40;99.90;;;;;;5020510;28;20041;-90
2022/11/03 02:34:30;;;;;;;15.07;3.03;;;11.60;99.90;;;;;;5055711;28;20102;-90
2022/11/03 02:37:00;;;;;;;12.05;3.00;;;11.40;99.90;;;;;;5024295;28;20409;-88
2022/11/03 02:39:35;;;;;;;13.23;3.25;;;12.60;99.90;;;;;;5040028;28;20038;-90
2022/11/03 02:42:03;;;;;;;14.52;3.72;;;11.40;99.90;;;;;;5020731;28;20467;-88
2022/11/03 02:44:32;;;;;;;14.13;2.97;;;11.90;99.90;;;;;;5003658;28;20045;-89
2022/11/03 02:47:02;;;;;;;9.68;3.00;;;11.70;99.90;;;;;;5027605;28;20037;-89
2022/11/03 02:49:27;;;;;;;14.93;3.17;;;11.30;99.90;;;;;;5022118;28;20053;-89
2022/11/03 02:52:04;;;;;;;12.68;2.95;;;11.60;99.90;;;;;;5051414;28;20036;-88
2022/11/03 02:54:39;;;;;;;12.50;3.05;;;11.30;99.90;;;;;;5054481;28;20041;-89
2022/11/03 02:57:13;;;;;;;9.50;3.00;;;11.30;99.90;;;;;;5045644;28;20116;-89
2022/11/03 02:59:53;;;;;;;12.77;2.83;;;12.10;99.90;;;;;;5033786;28;20053;-89
2022/11/03 03:02:25;;;;;;;12.05;3.00;;;11.40;99.90;;;;;;5064139;28;20414;-89
2022/11/03 03:04:55;;;;;;;15.30;3.63;;;12.20;99.90;;;;;;5045465;28;20040;-89
2022/11/03 03:07:31;;;;;;;19.67;3.40;;;11.30;99.90;;;;;;5056555;28;20045;-89
2022/11/03 03:10:08;;;;;;;12.77;2.97;;;11.30;99.90;;;;;;5026739;28;20044;-89
2022/11/03 03:12:38;;;;;;;13.48;3.28;;;11.30;99.90;;;;;;5071921;28;20036;-89
2022/11/03 03:15:06;;;;;;;12.65;2.80;;;11.30;99.90;;;;;;5041340;28;20040;-89
2022/11/03 03:17:49;;;;;;;12.05;3.13;;;11.40;99.90;;;;;;5031830;28;20127;-89
2022/11/03 03:20:32;;;;;;;16.67;3.42;;;11.40;99.90;;;;;;5022541;28;20037;-88
2022/11/03 03:23:11;;;;;;;15.45;3.20;;;11.50;99.90;;;;;;5056466;28;20052;-88
2022/11/03 03:25:46;;;;;;;13.18;3.13;;;11.40;99.90;;;;;;5038354;28;20425;-89
2022/11/03 03:28:18;;;;;;;13.18;3.22;;;11.40;99.90;;;;;;5038238;28;20126;-90
2022/11/03 03:30:47;;;;;;;12.55;2.90;;;12.80;99.90;;;;;;5073813;28;20040;-89
2022/11/03 03:33:14;;;;;;;14.13;3.08;;;12.40;99.90;;;;;;5057759;28;20083;-89
2022/11/03 03:35:43;;;;;;;10.70;3.13;;;11.50;99.90;;;;;;5046697;28;20045;-90
2022/11/03 03:38:13;;;;;;;14.85;3.53;;;11.90;99.90;;;;;;5056841;28;20044;-89
2022/11/03 03:40:45;;;;;;;14.07;3.45;;;11.50;99.90;;;;;;5056844;28;20049;-89
2022/11/03 03:43:13;;;;;;;12.35;3.38;;;11.50;99.90;;;;;;5056036;28;20512;-90
2022/11/03 03:45:43;;;;;;;17.05;3.60;;;12.10;99.90;;;;;;5037882;28;20439;-88
2022/11/03 03:48:08;;;;;;;17.42;3.28;;;11.50;99.90;;;;;;5028373;28;20497;-89
2022/11/03 03:50:38;;;;;;;14.73;3.22;;;11.50;99.90;;;;;;5038947;28;20040;-89
2022/11/03 03:53:08;;;;;;;15.02;3.05;;;12.60;99.90;;;;;;5057181;28;20037;-89
2022/11/03 03:55:39;;;;;;;13.45;3.20;;;11.50;99.90;;;;;;5045733;28;20048;-89
2022/11/03 03:58:05;;;;;;;12.77;3.10;;;11.50;99.90;;;;;;5047545;28;20331;-89
2022/11/03 04:00:31;;;;;;;14.10;3.28;;;11.50;99.90;;;;;;5020562;28;20045;-89
2022/11/03 04:02:58;;;;;;;11.50;3.40;;;11.50;99.90;;;;;;5005860;28;20052;-89
2022/11/03 04:05:24;;;;;;;13.85;3.20;;;11.60;99.90;;;;;;5001402;28;20049;-89
2022/11/03 04:07:50;;;;;;;17.90;3.20;;;11.60;99.90;;;;;;5001660;28;20099;-89
2022/11/03 04:10:18;;;;;;;10.82;2.47;;;11.60;99.90;;;;;;5004363;28;20042;-90
2022/11/03 04:23:42;;;;;;;11.57;2.88;;;11.60;99.90;;;;;;5035553;28;20056;-89
2022/11/03 04:26:14;;;;;;;15.57;3.20;;;11.60;99.90;;;;;;5001622;28;20037;-91
2022/11/03 04:28:41;;;;;;;11.10;2.83;;;11.50;99.90;;;;;;5001686;28;20083;-89
2022/11/03 04:31:14;;;;;;;11.10;2.88;;;11.50;99.90;;;;;;5007532;28;20063;-89
2022/11/03 04:33:41;;;;;;;14.45;3.05;;;11.50;99.90;;;;;;5019130;28;20429;-90
2022/11/03 04:36:16;;;;;;;11.68;3.08;;;11.50;99.90;;;;;;5017930;28;20132;-90
2022/11/03 04:38:43;;;;;;;13.85;3.35;;;11.50;99.90;;;;;;5017106;28;20038;-90
2022/11/03 04:41:16;;;;;;;8.88;2.95;;;12.10;99.90;;;;;;5033104;28;20120;-90
2022/11/03 04:43:44;;;;;;;15.00;3.15;;;12.10;99.90;;;;;;5017111;28;20537;-90
2022/11/03 04:46:12;;;;;;;12.10;3.33;;;11.60;99.90;;;;;;5022235;28;20033;-89
2022/11/03 04:48:38;;;;;;;12.70;3.10;;;11.50;99.90;;;;;;5018673;28;20120;-89
2022/11/03 04:51:15;;;;;;;13.65;2.90;;;11.60;99.90;;;;;;5036533;28;20048;-88
2022/11/03 04:53:52;;;;;;;12.55;2.63;;;11.60;99.90;;;;;;5024907;28;20053;-89
2022/11/03 04:56:21;;;;;;;13.15;3.20;;;11.60;99.90;;;;;;5055009;28;20061;-88
2022/11/03 04:58:47;;;;;;;12.45;3.03;;;12.60;99.90;;;;;;5028566;28;20536;-89
2022/11/03 05:01:16;;;;;;;17.15;3.25;;;11.50;99.90;;;;;;5035089;28;20037;-89
2022/11/03 05:03:43;;;;;;;8.35;2.50;;;11.60;99.90;;;;;;5016358;28;20045;-89
2022/11/03 05:06:13;;;;;;;14.40;3.03;;;11.60;99.90;;;;;;5018132;28;20194;-89
2022/11/03 05:08:40;;;;;;;11.02;2.88;;;11.60;99.90;;;;;;5035331;28;20041;-89
2022/11/03 05:11:27;;;;;;;10.23;3.30;;;11.60;99.90;;;;;;5049062;28;20045;-88
2022/11/03 05:13:52;;;;;;;14.48;3.15;;;11.60;99.90;;;;;;5042246;28;20073;-89
2022/11/03 05:16:18;;;;;;;10.60;2.65;;;11.60;99.90;;;;;;5053640;28;20086;-90
2022/11/03 05:18:47;;;;;;;10.55;3.05;;;11.50;99.90;;;;;;5047703;28;20079;-89
2022/11/03 05:21:16;;;;;;;13.50;3.40;;;11.60;99.90;;;;;;5053654;28;20049;-89
2022/11/03 05:23:51;;;;;;;11.90;2.85;;;11.50;99.90;;;;;;5038885;28;20363;-89
2022/11/03 05:26:23;;;;;;;11.45;3.22;;;11.90;99.90;;;;;;5033278;28;20378;-89
2022/11/03 05:28:58;;;;;;;9.80;2.92;;;11.60;99.90;;;;;;5016398;28;20044;-89
2022/11/03 05:31:34;;;;;;;12.80;3.35;;;12.40;99.90;;;;;;5047935;28;20156;-89
2022/11/03 05:34:30;;;;;;;9.40;2.55;;;11.50;99.90;;;;;;5053496;28;20045;-89
2022/11/03 05:36:59;;;;;;;12.73;3.22;;;11.80;99.90;;;;;;5038777;28;20052;-89
2022/11/03 05:39:30;;;;;;;10.85;2.97;;;11.50;99.90;;;;;;5052954;28;20489;-89
2022/11/03 05:41:58;;;;;;;12.32;3.20;;;12.60;99.90;;;;;;5052402;28;20032;-89
2022/11/03 05:44:38;;;;;;;12.20;3.13;;;11.50;99.90;;;;;;5037382;28;20135;-89
2022/11/03 05:47:37;;;;;;;13.43;2.85;;;11.50;99.90;;;;;;5024622;28;20543;-89
2022/11/03 05:50:24;;;;;;;12.90;2.65;;;11.40;99.90;;;;;;4999851;28;20057;-89
2022/11/03 05:53:15;;;;;;;13.07;3.30;;;11.40;99.90;;;;;;5037502;28;20049;-90
2022/11/03 05:55:42;;;;;;;13.02;2.97;;;11.40;99.90;;;;;;5025844;28;20045;-90
2022/11/03 05:58:29;;;;;;;14.60;3.72;;;11.70;99.90;;;;;;5036555;28;20052;-88
2022/11/03 06:00:56;;;;;;;14.15;2.63;;;11.40;99.90;;;;;;5023251;28;20053;-90
2022/11/03 06:03:30;;;;;;;14.85;3.00;;;11.30;99.90;;;;;;5020001;28;20151;-90
2022/11/03 06:05:57;;;;;;;12.80;3.05;;;11.30;99.90;;;;;;5038307;28;20037;-87
2022/11/03 06:08:34;;;;;;;14.23;3.55;;;11.40;99.90;;;;;;5041089;28;20044;-87
2022/11/03 06:11:01;;;;;;;10.10;2.90;;;11.30;99.90;;;;;;5039941;28;20048;-87
2022/11/03 06:13:36;;;;;;;11.13;2.90;;;11.30;99.90;;;;;;5039643;28;20512;-90
2022/11/03 06:16:14;;;;;;;10.63;3.10;;;11.30;99.90;;;;;;5014826;28;20144;-90
2022/11/03 06:18:39;;;;;;;14.07;3.30;;;11.30;99.90;;;;;;5021622;28;20081;-90
2022/11/03 06:21:09;;;;;;;13.52;3.08;;;11.30;99.90;;;;;;5037191;28;20517;-91
2022/11/03 06:23:36;;;;;;;13.25;3.10;;;12.60;99.90;;;;;;5037471;28;20493;-91
2022/11/03 06:26:03;;;;;;;12.70;3.50;;;11.30;99.90;;;;;;5020333;28;20072;-90
2022/11/03 06:28:37;;;;;;;12.55;3.05;;;11.30;99.90;;;;;;5004086;28;20049;-89
2022/11/03 06:31:21;;;;;;;13.00;3.30;;;11.60;99.90;;;;;;5013835;28;20109;-89
2022/11/03 06:33:48;;;;;;;10.95;3.10;;;11.30;99.90;;;;;;5014115;28;20400;-90
2022/11/03 06:36:23;;;;;;;11.55;3.08;;;12.50;99.90;;;;;;5016291;28;20044;-90
2022/11/03 06:38:59;;;;;;;11.90;3.30;;;11.40;99.90;;;;;;5015837;28;20490;-89
2022/11/03 06:41:36;;;;;;;14.18;3.17;;;11.60;99.90;;;;;;5031272;28;20292;-90
2022/11/03 06:44:16;;;;;;;12.65;3.00;;;11.30;99.90;;;;;;5015018;28;20045;-89
2022/11/03 06:46:42;;;;;;;9.40;2.80;;;11.30;99.90;;;;;;5014292;28;20054;-89
2022/11/03 06:49:32;;;;;;;10.82;3.10;;;11.40;99.90;;;;;;5012342;28;20037;-91
2022/11/03 06:52:04;;;;;;;9.27;3.10;;;11.40;99.90;;;;;;5029917;28;20037;-89
2022/11/03 06:54:30;;;;;;;12.38;3.15;;;11.70;99.90;;;;;;5010787;28;20136;-90
2022/11/03 06:56:56;;;;;;;10.75;2.92;;;12.00;99.90;;;;;;5014834;28;20466;-88
2022/11/03 06:59:23;;;;;;;16.13;3.25;;;12.50;99.90;;;;;;5024586;28;20049;-89
2022/11/03 07:01:54;;;;;;;10.60;3.22;;;11.50;99.90;;;;;;5032465;28;20080;-89
2022/11/03 07:04:28;;;;;;;10.30;3.35;;;12.70;99.90;;;;;;5036080;28;20049;-89
2022/11/03 07:07:01;;;;;;;11.60;3.28;;;11.50;99.90;;;;;;5054165;28;20455;-89
2022/11/03 07:09:28;;;;;;;15.05;3.55;;;11.50;99.90;;;;;;5018434;28;20037;-89
2022/11/03 07:11:58;;;;;;;11.82;3.38;;;11.00;99.90;;;;;;5032930;28;20036;-91
2022/11/03 07:14:28;;;;;;;10.45;3.15;;;12.60;99.90;;;;;;5039627;28;20037;-89
2022/11/03 07:16:58;;;;;;;14.63;3.00;;;11.60;99.90;;;;;;5023456;28;20045;-89
2022/11/03 07:19:32;;;;;;;12.45;3.20;;;11.60;99.90;;;;;;5024136;28;20041;-89
2022/11/03 07:21:59;;;;;;;9.23;3.17;;;12.00;99.90;;;;;;5022299;28;20045;-90
2022/11/03 07:24:29;;;;;;;18.33;3.58;;;11.70;99.90;;;;;;5044845;28;20048;-89
2022/11/03 07:27:13;;;;;;;17.25;3.47;;;11.70;99.90;;;;;;5043189;28;20040;-89
2022/11/03 07:29:39;;;;;;;13.20;3.40;;;11.70;99.90;;;;;;5063019;28;20049;-89
2022/11/03 07:32:14;;;;;;;10.65;2.70;;;11.80;99.90;;;;;;5070818;28;20058;-90
2022/11/03 07:34:40;;;;;;;15.27;3.55;;;12.10;99.90;;;;;;5076890;28;20048;-90
2022/11/03 07:37:14;;;;;;;11.15;2.70;;;11.90;99.90;;;;;;5076154;28;20045;-86
2022/11/03 07:39:39;;;;;;;17.02;3.72;;;12.30;99.90;;;;;;5062153;28;20453;-90
2022/11/03 07:42:17;;;;;;;9.25;3.13;;;12.90;99.90;;;;;;5046813;28;20072;-90
2022/11/03 07:44:47;;;;;;;18.42;4.03;;;11.90;99.90;;;;;;5031829;28;20048;-86
2022/11/03 07:47:18;;;;;;;10.80;3.10;;;12.00;99.90;;;;;;5056013;28;20094;-86
2022/11/03 07:49:44;;;;;;;11.02;3.20;;;12.00;99.90;;;;;;5054313;28;20040;-87
2022/11/03 07:52:13;;;;;;;13.77;3.72;;;12.00;99.90;;;;;;5060298;28;20115;-88
2022/11/03 07:54:39;;;;;;;17.00;3.80;;;12.70;99.90;;;;;;5057903;28;20076;-87
2022/11/03 07:57:10;;;;;;;14.20;3.72;;;13.30;99.90;;;;;;5074937;28;20433;-86
2022/11/03 07:59:40;;;;;;;11.98;3.30;;;12.20;99.90;;;;;;5057358;28;20053;-87
2022/11/03 08:02:24;;;;;;;10.98;3.25;;;12.90;99.90;;;;;;5074864;28;20109;-87
2022/11/03 08:04:49;;;;;;;12.90;3.40;;;13.30;99.90;;;;;;5057210;28;20053;-89
2022/11/03 08:07:15;;;;;;;13.05;3.47;;;12.30;99.90;;;;;;5058522;28;20052;-89
2022/11/03 08:09:40;;;;;;;9.48;3.72;;;12.30;99.90;;;;;;5042360;28;20159;-89
2022/11/03 08:12:06;;;;;;;14.02;3.30;;;13.20;99.90;;;;;;5038159;28;20470;-89
2022/11/03 08:14:32;;;;;;;14.75;3.63;;;12.40;99.90;;;;;;5062056;28;20048;-89
2022/11/03 08:16:58;;;;;;;13.88;3.88;;;12.40;99.90;;;;;;5052960;28;20472;-89
2022/11/03 08:19:24;;;;;;;11.98;3.47;;;12.50;99.90;;;;;;5040297;28;20106;-89
2022/11/03 08:21:50;;;;;;;10.63;3.40;;;12.60;99.90;;;;;;5022593;28;20037;-88
2022/11/03 08:24:16;;;;;;;11.32;3.05;;;12.80;99.90;;;;;;5035484;28;20044;-89
2022/11/03 08:26:41;;;;;;;13.52;3.15;;;13.30;99.90;;;;;;5024213;28;20037;-89
2022/11/03 08:29:07;;;;;;;9.85;3.08;;;13.20;99.90;;;;;;5057153;28;20040;-90
2022/11/03 08:31:33;;;;;;;10.23;3.25;;;13.40;99.90;;;;;;5041897;28;20056;-89
2022/11/03 08:33:58;;;;;;;13.18;3.20;;;13.50;99.90;;;;;;5041610;28;20037;-90
2022/11/03 08:36:24;;;;;;;14.18;3.25;;;13.70;99.90;;;;;;5041162;28;20489;-90
2022/11/03 08:38:50;;;;;;;14.23;3.40;;;13.80;99.90;;;;;;5042208;28;20054;-90
2022/11/03 08:41:16;;;;;;;6.40;2.70;;;13.50;99.90;;;;;;5042554;28;20067;-90
2022/11/03 08:43:41;;;;;;;12.60;3.38;;;14.30;99.90;;;;;;5041727;28;20048;-90
2022/11/03 08:46:07;;;;;;;11.52;3.22;;;14.60;99.90;;;;;;5041752;28;20043;-89
2022/11/03 08:48:33;;;;;;;11.90;2.83;;;14.70;99.90;;;;;;5041020;28;20044;-89
2022/11/03 08:50:58;;;;;;;10.60;3.17;;;14.70;99.90;;;;;;5052686;28;20493;-89
2022/11/03 08:53:25;;;;;;;10.25;3.40;;;14.80;99.90;;;;;;5041747;28;20052;-88
2022/11/03 08:55:54;;;;;;;11.45;3.28;;;15.00;99.90;;;;;;5041921;28;20098;-89
2022/11/03 08:58:21;;;;;;;10.05;3.10;;;15.00;99.90;;;;;;5057516;28;20060;-89
2022/11/03 09:00:48;;;;;;;15.13;3.63;;;15.00;99.90;;;;;;5041066;28;20485;-88
2022/11/03 09:03:14;;;;;;;11.43;2.97;;;15.00;99.90;;;;;;5040466;28;20036;-89
2022/11/03 09:05:40;;;;;;;9.30;3.13;;;14.80;99.90;;;;;;5040837;28;20049;-89
2022/11/03 09:08:06;;;;;;;11.88;3.33;;;14.80;99.90;;;;;;5040579;28;20040;-89
2022/11/03 09:10:32;;;;;;;13.52;2.88;;;14.60;99.90;;;;;;5056458;28;20124;-89
2022/11/03 09:12:58;;;;;;;14.57;3.35;;;14.50;99.90;;;;;;5058361;28;20098;-89
2022/11/03 09:15:24;;;;;;;10.75;3.10;;;14.30;99.90;;;;;;5039726;28;20127;-89
2022/11/03 09:17:49;;;;;;;12.50;2.97;;;14.20;99.90;;;;;;5040476;28;20044;-89
2022/11/03 09:20:15;;;;;;;11.85;3.22;;;14.10;99.90;;;;;;5056955;28;20043;-89
2022/11/03 09:22:42;;;;;;;12.30;3.40;;;14.10;99.90;;;;;;5040362;28;20131;-88
2022/11/03 09:25:09;;;;;;;13.10;3.20;;;14.10;99.90;;;;;;5061423;28;20037;-89
2022/11/03 09:27:34;;;;;;;14.32;3.15;;;14.10;99.90;;;;;;5021756;28;20063;-89
2022/11/03 09:30:00;;;;;;;14.30;3.13;;;14.10;99.90;;;;;;5020921;28;20041;-90
2022/11/03 09:32:30;;;;;;;10.25;3.05;;;14.10;99.90;;;;;;5038032;28;20114;-90
2022/11/03 09:34:55;;;;;;;12.32;3.22;;;14.10;99.90;;;;;;5025104;28;20495;-90
2022/11/03 09:37:21;;;;;;;11.00;2.95;;;14.80;99.90;;;;;;5040504;28;20068;-89
2022/11/03 09:39:47;;;;;;;11.50;3.47;;;15.20;99.90;;;;;;5040509;28;20086;-90
2022/11/03 09:42:14;;;;;;;13.18;3.55;;;14.20;99.90;;;;;;5056456;28;20045;-90
2022/11/03 09:44:40;;;;;;;14.18;3.20;;;14.30;99.90;;;;;;5040044;28;20033;-90
2022/11/03 09:47:06;;;;;;;12.75;3.30;;;13.90;99.90;;;;;;5040813;28;20614;-90
2022/11/03 09:49:33;;;;;;;14.05;3.75;;;14.50;99.90;;;;;;5075574;28;20485;-90
2022/11/03 09:52:00;;;;;;;13.25;3.53;;;14.50;99.90;;;;;;5041847;28;20135;-89
2022/11/03 09:54:28;;;;;;;12.90;3.00;;;14.60;99.90;;;;;;5041249;28;20516;-89
2022/11/03 09:56:57;;;;;;;13.48;3.58;;;14.60;99.90;;;;;;5057901;28;20143;-88
2022/11/03 09:59:23;;;;;;;13.38;3.28;;;14.70;99.90;;;;;;5036627;28;20139;-89
2022/11/03 10:01:52;;;;;;;12.75;3.25;;;14.80;99.90;;;;;;5053817;28;20041;-88
2022/11/03 10:04:24;;;;;;;11.38;3.25;;;14.80;99.90;;;;;;5053601;28;20037;-88
2022/11/03 10:06:50;;;;;;;12.80;3.53;;;15.00;99.90;;;;;;5037258;28;20048;-89
2022/11/03 10:09:17;;;;;;;16.25;3.58;;;;;;;;;;5040978;28;20049;-90
2022/11/03 10:11:44;;;;;;;11.80;3.58;;;;;;;;;;5037673;28;20041;-90
2022/11/03 10:14:12;;;;;;;15.85;3.50;;;;;;;;;;5039133;28;20148;-89
2022/11/03 10:16:40;;;;;;;11.85;3.05;;;;;;;;;;5054837;28;20048;-90
2022/11/03 10:19:08;;;;;;;10.93;3.30;;;;;;;;;;5038769;28;20099;-90
2022/11/03 10:21:38;;;;;;;12.75;2.90;;;;;;;;;;5037921;28;20052;-90
2022/11/03 10:24:04;;;;;;;11.35;3.03;;;;;;;;;;5049895;28;20041;-90
2022/11/03 10:26:45;;;;;;;9.85;2.90;;;;;;;;;;5034958;28;20089;-90
2022/11/03 10:29:22;;;;;;;9.50;2.83;;;;;;;;;;5018414;28;20041;-90
2022/11/03 10:31:51;;;;;;;9.32;3.38;;;16.10;99.90;;;;;;5038532;28;20101;-90
2022/11/03 10:34:36;;;;;;;8.40;2.72;;;15.10;99.90;;;;;;5039992;28;20186;-88
2022/11/03 10:37:23;;;;;;;10.95;3.13;;;15.20;99.90;;;;;;5055196;28;20052;-79
2022/11/03 10:39:51;;;;;;;9.93;3.15;;;15.20;99.90;;;;;;5052113;28;20041;-80
2022/11/03 10:42:19;;;;;;;15.38;2.97;;;;;;;;;;5051990;28;20128;-80
2022/11/03 10:44:45;;;;;;;13.02;3.33;;;;;;;;;;5048233;28;20068;-81
2022/11/03 10:47:22;;;;;;;13.70;3.30;;;;;;;;;;5031968;28;20045;-81
2022/11/03 10:49:48;;;;;;;9.18;2.83;;;;;;;;;;5032422;28;20050;-81
2022/11/03 10:52:21;;;;;;;10.32;3.53;;;;;;;;;;5031763;28;20473;-81
2022/11/03 10:54:48;;;;;;;13.35;2.75;;;;;;;;;;5030792;28;20473;-81
2022/11/03 10:57:15;;;;;;;15.57;3.75;;;;;;;;;;5030784;28;20049;-80
2022/11/03 10:59:41;;;;;;;10.75;2.90;;;;;;;;;;5030347;28;20057;-86
2022/11/03 11:02:17;;;;;;;12.63;3.40;;;;;;;;;;5040902;28;20132;-86
2022/11/03 11:04:45;;;;;;;8.90;2.80;;;;;;;;;;5037491;28;20049;-86
2022/11/03 11:07:19;;;;;;;15.02;3.53;;;;;;;;;;5054660;28;20084;-86
2022/11/03 11:09:45;;;;;;;13.70;3.50;;;;;;;;;;5053763;28;20056;-86
2022/11/03 11:12:18;;;;;;;10.85;2.95;;;;;;;;;;5054488;28;20049;-85
2022/11/03 11:14:55;;;;;;;11.15;2.92;;;;;;;;;;5039579;28;20041;-86
2022/11/03 11:17:36;;;;;;;12.77;3.22;;;;;;;;;;5035991;28;20045;-85
2022/11/03 11:20:17;;;;;;;12.48;2.88;;;;;;;;;;5044740;28;20466;-86
2022/11/03 11:22:43;;;;;;;9.68;2.67;;;;;;;;;;5057440;28;20088;-87
2022/11/03 11:25:09;;;;;;;9.82;2.97;;;;;;;;;;5056182;28;20041;-87
2022/11/03 11:27:35;;;;;;;11.63;2.60;;;;;;;;;;5040512;28;20076;-86
2022/11/03 11:30:03;;;;;;;11.32;2.60;;;;;;;;;;5056454;28;20030;-86
2022/11/03 11:32:40;;;;;;;8.50;2.83;;;;;;;;;;5057094;28;20049;-86
2022/11/03 11:35:10;;;;;;;16.80;3.78;;;;;;;;;;5053308;28;20056;-85
2022/11/03 11:37:36;;;;;;;9.90;2.60;;;;;;;;;;5058027;28;20041;-86
2022/11/03 11:40:08;;;;;;;11.70;3.25;;;;;;;;;;5057420;28;20040;-86
2022/11/03 11:42:55;;;;;;;9.30;3.10;;;;;;;;;;5057272;28;20089;-86
2022/11/03 11:45:41;;;;;;;10.95;3.05;;;;;;;;;;5055807;28;20037;-87
2022/11/03 11:48:07;;;;;;;;;;;;;;;;;;5058002;28;20097;-86
2022/11/03 11:50:33;;;;;;;;;;;;;;;;;;5056078;28;19925;-86
2022/11/03 11:52:59;;;;;;;;;;;;;;;;;;5041833;28;19921;-86
2022/11/03 11:55:25;;;;;;;;;;;;;;;;;;5033922;28;19927;-85
2022/11/03 11:57:52;;;;;;;14.23;2.92;;;;;;;;;;5036642;28;20289;-84
2022/11/03 12:00:18;;;;;;;9.45;2.83;;;;;;;;;;5055669;28;20413;-86
2022/11/03 12:02:46;;;;;;;8.57;2.45;;;;;;;;;;5021189;28;20120;-86
2022/11/03 12:05:18;;;;;;;8.05;2.50;;;;;;;;;;5055670;28;20059;-86
2022/11/03 12:07:44;;;;;;;10.63;2.60;;;;;;;;;;5055734;28;20041;-86
2022/11/03 12:10:21;;;;;;;7.80;2.22;;;;;;;;;;5037546;28;20076;-86
2022/11/03 12:12:48;;;;;;;13.40;2.90;;;;;;;;;;5055934;28;20036;-86
2022/11/03 12:15:32;;;;;;;12.80;2.72;;;;;;;;;;5035705;28;20498;-85
2022/11/03 12:17:58;;;;;;;9.95;2.70;;;;;;;;;;5035418;28;20099;-85
2022/11/03 12:20:35;;;;;;;7.72;2.30;;;15.30;99.90;;;;;;5036466;28;20045;-86
2022/11/03 12:23:01;;;;;;;7.65;2.38;;;17.00;99.90;;;;;;5056102;28;20049;-88
2022/11/03 12:25:34;;;;;;;7.30;2.53;;;16.80;99.90;;;;;;5056093;28;20481;-87
2022/11/03 12:27:59;;;;;;;10.77;2.22;;;16.70;99.90;;;;;;5022377;28;20060;-88
2022/11/03 12:30:25;;;;;;;14.32;2.50;;;16.70;99.90;;;;;;5056735;28;20040;-88
2022/11/03 12:32:52;;;;;;;11.60;2.60;;;16.70;99.90;;;;;;5056171;28;20508;-87
2022/11/03 12:35:17;;;;;;;11.20;2.25;;;16.60;99.90;;;;;;5051229;28;20409;-88
2022/11/03 12:37:43;;;;;;;8.68;2.28;;;16.60;99.90;;;;;;5038682;28;20037;-88
2022/11/03 12:40:11;;;;;;;8.35;2.38;;;16.60;99.90;;;;;;5038324;28;20041;-88
2022/11/03 12:42:39;;;;;;;9.38;2.65;;;16.50;99.90;;;;;;5037615;28;20045;-88
2022/11/03 12:45:07;;;;;;;8.50;2.60;;;16.50;99.90;;;;;;5061886;28;20358;-88
2022/11/03 12:47:32;;;;;;;11.40;2.28;;;16.40;99.90;;;;;;5037138;28;20057;-88
2022/11/03 12:49:58;;;;;;;12.25;2.65;;;16.30;99.90;;;;;;5055117;28;20128;-88
2022/11/03 12:52:23;;;;;;;12.05;2.67;;;16.30;99.90;;;;;;5056132;28;20045;-88
2022/11/03 12:54:49;;;;;;;8.32;2.75;;;16.30;99.90;;;;;;5038120;28;20052;-89
2022/11/03 12:57:15;;;;;;;8.65;2.60;;;17.30;99.90;;;;;;5059341;28;20045;-89
2022/11/03 12:59:40;;;;;;;6.93;2.40;;;16.30;99.90;;;;;;5042408;28;20053;-89
2022/11/03 13:02:08;;;;;;;10.10;2.67;;;16.20;99.90;;;;;;5037690;28;20482;-89
2022/11/03 13:04:34;;;;;;;8.63;2.70;;;16.30;99.90;;;;;;5036206;28;20125;-86
2022/11/03 13:06:59;;;;;;;8.38;2.60;;;16.30;99.90;;;;;;5036439;28;20491;-89
2022/11/03 13:09:25;;;;;;;9.20;2.42;;;16.40;99.90;;;;;;5018264;28;20049;-89
2022/11/03 13:14:35;;;;;;;7.70;2.42;;;17.30;99.90;;;;;;5033427;28;20041;-88
2022/11/03 13:17:02;;;;;;;9.00;2.80;;;;;;;;;;5054478;28;20103;-86
2022/11/03 13:19:28;;;;;;;11.93;2.40;;;;;;;;;;5053974;28;20515;-86
2022/11/03 13:21:54;;;;;;;13.23;2.92;;;;;;;;;;5054902;28;20056;-85
2022/11/03 13:24:20;;;;;;;8.80;2.50;;;;;;;;;;5053223;28;20346;-86
2022/11/03 13:26:46;;;;;;;10.65;2.63;;;;;;;;;;5052825;28;20071;-87
2022/11/03 13:29:12;;;;;;;12.52;2.65;;;;;;;;;;5035870;28;20048;-86
2022/11/03 13:31:38;;;;;;;15.20;2.72;;;;;;;;;;5054332;28;20501;-86